sensor_id;sensor_type;location;lat;lon;timestamp;P1;durP1;ratioP1;P2;durP2;ratioP2
33716;SDS011;20046;50.746;7.072;2023-02-28T00:00:04;7.15;;;4.00;;
33716;SDS011;20046;50.746;7.072;2023-02-28T00:02:35;12.35;;;3.92;;
33716;SDS011;20046;50.746;7.072;2023-02-28T00:05:05;13.63;;;4.22;;
33716;SDS011;20046;50.746;7.072;2023-02-28T00:07:32;9.00;;;3.90;;
33716;SDS011;20046;50.746;7.072;2023-02-28T00:09:58;11.60;;;4.70;;
33716;SDS011;20046;50.746;7.072;2023-02-28T00:12:24;9.70;;;3.75;;
33716;SDS011;20046;50.746;7.072;2023-02-28T00:14:50;10.43;;;3.92;;
33716;SDS011;20046;50.746;7.072;2023-02-28T00:17:15;8.98;;;4.20;;
33716;SDS011;20046;50.746;7.072;2023-02-28T00:19:46;13.45;;;5.05;;
33716;SDS011;20046;50.746;7.072;2023-02-28T00:22:12;18.40;;;5.05;;
33716;SDS011;20046;50.746;7.072;2023-02-28T00:24:38;14.00;;;4.43;;
33716;SDS011;20046;50.746;7.072;2023-02-28T00:27:04;9.80;;;4.50;;
33716;SDS011;20046;50.746;7.072;2023-02-28T00:29:29;12.40;;;4.75;;
33716;SDS011;20046;50.746;7.072;2023-02-28T00:31:55;13.80;;;4.65;;
33716;SDS011;20046;50.746;7.072;2023-02-28T00:34:20;11.30;;;4.57;;
33716;SDS011;20046;50.746;7.072;2023-02-28T00:36:46;12.18;;;4.90;;
33716;SDS011;20046;50.746;7.072;2023-02-28T00:39:13;13.90;;;5.07;;
33716;SDS011;20046;50.746;7.072;2023-02-28T00:41:40;17.48;;;4.78;;
33716;SDS011;20046;50.746;7.072;2023-02-28T00:44:05;15.38;;;5.07;;
33716;SDS011;20046;50.746;7.072;2023-02-28T00:46:31;13.32;;;4.53;;
33716;SDS011;20046;50.746;7.072;2023-02-28T00:48:56;15.38;;;4.70;;
33716;SDS011;20046;50.746;7.072;2023-02-28T00:51:22;13.40;;;4.57;;
33716;SDS011;20046;50.746;7.072;2023-02-28T00:53:47;12.70;;;4.38;;
33716;SDS011;20046;50.746;7.072;2023-02-28T00:56:13;16.55;;;4.35;;
33716;SDS011;20046;50.746;7.072;2023-02-28T00:58:39;13.75;;;4.80;;
33716;SDS011;20046;50.746;7.072;2023-02-28T01:01:05;14.38;;;5.10;;
33716;SDS011;20046;50.746;7.072;2023-02-28T01:03:31;7.80;;;4.85;;
33716;SDS011;20046;50.746;7.072;2023-02-28T01:05:56;10.73;;;3.95;;
33716;SDS011;20046;50.746;7.072;2023-02-28T01:08:22;7.72;;;4.32;;
33716;SDS011;20046;50.746;7.072;2023-02-28T01:10:48;14.45;;;4.78;;
33716;SDS011;20046;50.746;7.072;2023-02-28T01:13:14;11.63;;;3.85;;
33716;SDS011;20046;50.746;7.072;2023-02-28T01:15:40;12.35;;;4.80;;
33716;SDS011;20046;50.746;7.072;2023-02-28T01:18:10;10.00;;;4.18;;
33716;SDS011;20046;50.746;7.072;2023-02-28T01:20:36;9.32;;;3.85;;
33716;SDS011;20046;50.746;7.072;2023-02-28T01:23:02;7.40;;;3.78;;
33716;SDS011;20046;50.746;7.072;2023-02-28T01:25:28;13.55;;;4.88;;
33716;SDS011;20046;50.746;7.072;2023-02-28T01:27:54;12.95;;;4.25;;
33716;SDS011;20046;50.746;7.072;2023-02-28T01:30:19;10.85;;;4.18;;
33716;SDS011;20046;50.746;7.072;2023-02-28T01:32:45;8.65;;;4.03;;
33716;SDS011;20046;50.746;7.072;2023-02-28T01:35:10;9.10;;;4.25;;
33716;SDS011;20046;50.746;7.072;2023-02-28T01:37:36;9.30;;;3.97;;
33716;SDS011;20046;50.746;7.072;2023-02-28T01:40:02;12.57;;;3.92;;
33716;SDS011;20046;50.746;7.072;2023-02-28T01:42:28;15.75;;;4.40;;
33716;SDS011;20046;50.746;7.072;2023-02-28T01:45:02;14.98;;;4.35;;
33716;SDS011;20046;50.746;7.072;2023-02-28T01:47:36;14.20;;;4.13;;
33716;SDS011;20046;50.746;7.072;2023-02-28T01:50:06;6.97;;;3.97;;
33716;SDS011;20046;50.746;7.072;2023-02-28T01:55:05;12.20;;;3.92;;
33716;SDS011;20046;50.746;7.072;2023-02-28T01:57:34;7.18;;;3.90;;
33716;SDS011;20046;50.746;7.072;2023-02-28T02:00:09;14.50;;;4.30;;
33716;SDS011;20046;50.746;7.072;2023-02-28T02:02:43;11.43;;;4.05;;
33716;SDS011;20046;50.746;7.072;2023-02-28T02:05:15;7.45;;;3.22;;
33716;SDS011;20046;50.746;7.072;2023-02-28T02:07:43;8.95;;;4.32;;
33716;SDS011;20046;50.746;7.072;2023-02-28T02:15:28;13.23;;;3.45;;
33716;SDS011;20046;50.746;7.072;2023-02-28T02:18:18;12.90;;;4.18;;
33716;SDS011;20046;50.746;7.072;2023-02-28T02:41:47;11.18;;;4.90;;
33716;SDS011;20046;50.746;7.072;2023-02-28T02:44:18;14.43;;;3.95;;
33716;SDS011;20046;50.746;7.072;2023-02-28T02:46:51;13.18;;;4.60;;
33716;SDS011;20046;50.746;7.072;2023-02-28T02:49:28;7.13;;;4.10;;
33716;SDS011;20046;50.746;7.072;2023-02-28T02:51:57;9.18;;;3.67;;
33716;SDS011;20046;50.746;7.072;2023-02-28T02:54:28;7.45;;;4.05;;
33716;SDS011;20046;50.746;7.072;2023-02-28T02:56:59;7.05;;;3.92;;
33716;SDS011;20046;50.746;7.072;2023-02-28T02:59:28;11.38;;;4.30;;
33716;SDS011;20046;50.746;7.072;2023-02-28T03:01:57;13.27;;;4.28;;
33716;SDS011;20046;50.746;7.072;2023-02-28T03:04:25;10.52;;;4.50;;
33716;SDS011;20046;50.746;7.072;2023-02-28T03:06:54;11.70;;;4.60;;
33716;SDS011;20046;50.746;7.072;2023-02-28T03:09:21;10.48;;;4.28;;
33716;SDS011;20046;50.746;7.072;2023-02-28T03:11:47;9.18;;;4.32;;
33716;SDS011;20046;50.746;7.072;2023-02-28T03:14:36;14.35;;;4.80;;
33716;SDS011;20046;50.746;7.072;2023-02-28T03:17:47;11.20;;;3.92;;
33716;SDS011;20046;50.746;7.072;2023-02-28T03:23:17;11.93;;;4.47;;
33716;SDS011;20046;50.746;7.072;2023-02-28T03:28:27;8.23;;;4.45;;
33716;SDS011;20046;50.746;7.072;2023-02-28T03:34:03;5.82;;;2.92;;
33716;SDS011;20046;50.746;7.072;2023-02-28T03:36:36;14.90;;;4.72;;
33716;SDS011;20046;50.746;7.072;2023-02-28T03:39:09;10.73;;;5.18;;
33716;SDS011;20046;50.746;7.072;2023-02-28T03:41:43;18.02;;;5.50;;
33716;SDS011;20046;50.746;7.072;2023-02-28T03:44:18;8.88;;;4.72;;
33716;SDS011;20046;50.746;7.072;2023-02-28T03:46:52;17.75;;;4.97;;
33716;SDS011;20046;50.746;7.072;2023-02-28T03:49:27;14.32;;;5.13;;
33716;SDS011;20046;50.746;7.072;2023-02-28T03:51:59;10.75;;;4.28;;
33716;SDS011;20046;50.746;7.072;2023-02-28T03:54:31;11.00;;;5.22;;
33716;SDS011;20046;50.746;7.072;2023-02-28T03:59:50;17.58;;;6.18;;
33716;SDS011;20046;50.746;7.072;2023-02-28T04:02:21;14.15;;;5.28;;
33716;SDS011;20046;50.746;7.072;2023-02-28T04:04:47;16.83;;;6.78;;
33716;SDS011;20046;50.746;7.072;2023-02-28T04:07:13;12.40;;;5.88;;
33716;SDS011;20046;50.746;7.072;2023-02-28T04:09:39;13.68;;;6.30;;
33716;SDS011;20046;50.746;7.072;2023-02-28T04:12:06;14.40;;;5.18;;
33716;SDS011;20046;50.746;7.072;2023-02-28T04:14:31;10.80;;;5.85;;
33716;SDS011;20046;50.746;7.072;2023-02-28T04:16:57;12.18;;;6.03;;
33716;SDS011;20046;50.746;7.072;2023-02-28T04:19:23;14.20;;;6.10;;
33716;SDS011;20046;50.746;7.072;2023-02-28T04:21:52;14.73;;;6.15;;
33716;SDS011;20046;50.746;7.072;2023-02-28T04:24:19;15.02;;;5.55;;
33716;SDS011;20046;50.746;7.072;2023-02-28T04:26:50;13.32;;;5.95;;
33716;SDS011;20046;50.746;7.072;2023-02-28T04:29:22;9.88;;;4.75;;
33716;SDS011;20046;50.746;7.072;2023-02-28T04:31:52;12.82;;;5.50;;
33716;SDS011;20046;50.746;7.072;2023-02-28T04:34:19;9.45;;;4.70;;
33716;SDS011;20046;50.746;7.072;2023-02-28T04:36:46;10.32;;;4.60;;
33716;SDS011;20046;50.746;7.072;2023-02-28T04:39:14;13.88;;;5.43;;
33716;SDS011;20046;50.746;7.072;2023-02-28T04:41:40;12.50;;;5.20;;
33716;SDS011;20046;50.746;7.072;2023-02-28T04:44:06;11.82;;;5.07;;
33716;SDS011;20046;50.746;7.072;2023-02-28T04:46:31;14.70;;;5.25;;
33716;SDS011;20046;50.746;7.072;2023-02-28T04:48:57;13.63;;;5.80;;
33716;SDS011;20046;50.746;7.072;2023-02-28T04:51:23;9.95;;;4.88;;
33716;SDS011;20046;50.746;7.072;2023-02-28T04:53:48;9.30;;;5.28;;
33716;SDS011;20046;50.746;7.072;2023-02-28T04:56:15;9.73;;;4.78;;
33716;SDS011;20046;50.746;7.072;2023-02-28T04:58:42;8.45;;;4.93;;
33716;SDS011;20046;50.746;7.072;2023-02-28T05:01:21;13.10;;;5.28;;
33716;SDS011;20046;50.746;7.072;2023-02-28T05:03:49;14.68;;;4.80;;
33716;SDS011;20046;50.746;7.072;2023-02-28T05:06:16;9.38;;;4.65;;
33716;SDS011;20046;50.746;7.072;2023-02-28T05:08:42;11.95;;;5.18;;
33716;SDS011;20046;50.746;7.072;2023-02-28T05:11:13;7.38;;;4.38;;
33716;SDS011;20046;50.746;7.072;2023-02-28T05:13:41;11.85;;;4.65;;
33716;SDS011;20046;50.746;7.072;2023-02-28T05:16:06;10.45;;;4.68;;
33716;SDS011;20046;50.746;7.072;2023-02-28T05:18:32;11.75;;;4.85;;
33716;SDS011;20046;50.746;7.072;2023-02-28T05:20:57;24.85;;;4.65;;
33716;SDS011;20046;50.746;7.072;2023-02-28T05:23:26;12.30;;;4.90;;
33716;SDS011;20046;50.746;7.072;2023-02-28T05:25:52;17.70;;;5.20;;
33716;SDS011;20046;50.746;7.072;2023-02-28T05:28:19;10.85;;;4.68;;
33716;SDS011;20046;50.746;7.072;2023-02-28T05:30:44;12.73;;;4.68;;
33716;SDS011;20046;50.746;7.072;2023-02-28T05:33:10;15.10;;;4.68;;
33716;SDS011;20046;50.746;7.072;2023-02-28T05:35:38;15.35;;;5.10;;
33716;SDS011;20046;50.746;7.072;2023-02-28T05:38:07;15.65;;;4.53;;
33716;SDS011;20046;50.746;7.072;2023-02-28T05:40:33;11.52;;;5.07;;
33716;SDS011;20046;50.746;7.072;2023-02-28T05:42:59;8.93;;;4.45;;
33716;SDS011;20046;50.746;7.072;2023-02-28T05:45:25;11.77;;;4.40;;
33716;SDS011;20046;50.746;7.072;2023-02-28T05:47:53;10.82;;;4.32;;
33716;SDS011;20046;50.746;7.072;2023-02-28T05:50:19;15.27;;;5.38;;
33716;SDS011;20046;50.746;7.072;2023-02-28T05:52:48;14.32;;;5.43;;
33716;SDS011;20046;50.746;7.072;2023-02-28T05:55:15;10.65;;;4.75;;
33716;SDS011;20046;50.746;7.072;2023-02-28T05:57:40;14.38;;;5.10;;
33716;SDS011;20046;50.746;7.072;2023-02-28T06:00:07;23.90;;;5.53;;
33716;SDS011;20046;50.746;7.072;2023-02-28T06:02:33;19.00;;;5.05;;
33716;SDS011;20046;50.746;7.072;2023-02-28T06:04:59;18.38;;;5.55;;
33716;SDS011;20046;50.746;7.072;2023-02-28T06:07:24;17.00;;;5.10;;
33716;SDS011;20046;50.746;7.072;2023-02-28T06:09:50;19.73;;;5.85;;
33716;SDS011;20046;50.746;7.072;2023-02-28T06:12:16;12.60;;;5.13;;
33716;SDS011;20046;50.746;7.072;2023-02-28T06:14:42;22.08;;;5.55;;
33716;SDS011;20046;50.746;7.072;2023-02-28T06:17:08;17.23;;;5.32;;
33716;SDS011;20046;50.746;7.072;2023-02-28T06:19:36;19.05;;;5.30;;
33716;SDS011;20046;50.746;7.072;2023-02-28T06:22:03;13.35;;;5.03;;
33716;SDS011;20046;50.746;7.072;2023-02-28T06:24:29;11.25;;;4.75;;
33716;SDS011;20046;50.746;7.072;2023-02-28T06:26:56;18.20;;;5.32;;
33716;SDS011;20046;50.746;7.072;2023-02-28T06:29:23;12.70;;;5.18;;
33716;SDS011;20046;50.746;7.072;2023-02-28T06:31:49;9.93;;;4.72;;
33716;SDS011;20046;50.746;7.072;2023-02-28T06:34:15;10.05;;;5.00;;
33716;SDS011;20046;50.746;7.072;2023-02-28T06:36:41;17.17;;;5.22;;
33716;SDS011;20046;50.746;7.072;2023-02-28T06:39:08;18.20;;;5.20;;
33716;SDS011;20046;50.746;7.072;2023-02-28T06:41:34;19.27;;;5.15;;
33716;SDS011;20046;50.746;7.072;2023-02-28T06:44:05;14.02;;;5.70;;
33716;SDS011;20046;50.746;7.072;2023-02-28T06:46:36;18.35;;;6.50;;
33716;SDS011;20046;50.746;7.072;2023-02-28T06:49:03;22.77;;;6.53;;
33716;SDS011;20046;50.746;7.072;2023-02-28T06:51:28;26.33;;;6.30;;
33716;SDS011;20046;50.746;7.072;2023-02-28T06:53:54;16.70;;;5.90;;
33716;SDS011;20046;50.746;7.072;2023-02-28T06:56:20;16.52;;;5.93;;
33716;SDS011;20046;50.746;7.072;2023-02-28T06:58:46;23.92;;;6.25;;
33716;SDS011;20046;50.746;7.072;2023-02-28T07:01:13;15.70;;;6.03;;
33716;SDS011;20046;50.746;7.072;2023-02-28T07:03:39;21.40;;;6.07;;
33716;SDS011;20046;50.746;7.072;2023-02-28T07:06:05;20.52;;;6.75;;
33716;SDS011;20046;50.746;7.072;2023-02-28T07:08:31;24.83;;;6.03;;
33716;SDS011;20046;50.746;7.072;2023-02-28T07:10:58;11.98;;;5.78;;
33716;SDS011;20046;50.746;7.072;2023-02-28T07:13:23;21.98;;;6.05;;
33716;SDS011;20046;50.746;7.072;2023-02-28T07:15:53;16.77;;;5.63;;
33716;SDS011;20046;50.746;7.072;2023-02-28T07:18:20;17.45;;;5.88;;
33716;SDS011;20046;50.746;7.072;2023-02-28T07:20:46;20.05;;;5.20;;
33716;SDS011;20046;50.746;7.072;2023-02-28T07:23:11;17.10;;;5.35;;
33716;SDS011;20046;50.746;7.072;2023-02-28T07:25:37;20.75;;;5.30;;
33716;SDS011;20046;50.746;7.072;2023-02-28T07:28:03;16.65;;;5.70;;
33716;SDS011;20046;50.746;7.072;2023-02-28T07:30:28;19.40;;;5.57;;
33716;SDS011;20046;50.746;7.072;2023-02-28T07:32:54;22.85;;;5.40;;
33716;SDS011;20046;50.746;7.072;2023-02-28T07:35:21;10.32;;;4.60;;
33716;SDS011;20046;50.746;7.072;2023-02-28T07:37:46;13.07;;;4.68;;
33716;SDS011;20046;50.746;7.072;2023-02-28T07:40:12;12.20;;;4.38;;
33716;SDS011;20046;50.746;7.072;2023-02-28T07:42:38;16.60;;;5.28;;
33716;SDS011;20046;50.746;7.072;2023-02-28T07:45:05;11.18;;;4.60;;
33716;SDS011;20046;50.746;7.072;2023-02-28T07:47:31;11.30;;;4.28;;
33716;SDS011;20046;50.746;7.072;2023-02-28T07:49:57;15.95;;;5.28;;
33716;SDS011;20046;50.746;7.072;2023-02-28T07:52:23;14.10;;;5.00;;
33716;SDS011;20046;50.746;7.072;2023-02-28T07:54:51;10.90;;;4.45;;
33716;SDS011;20046;50.746;7.072;2023-02-28T07:57:18;10.95;;;4.82;;
33716;SDS011;20046;50.746;7.072;2023-02-28T07:59:43;13.20;;;4.22;;
33716;SDS011;20046;50.746;7.072;2023-02-28T08:02:13;9.98;;;3.72;;
33716;SDS011;20046;50.746;7.072;2023-02-28T08:04:40;10.45;;;4.50;;
33716;SDS011;20046;50.746;7.072;2023-02-28T08:07:05;8.20;;;3.85;;
33716;SDS011;20046;50.746;7.072;2023-02-28T08:09:31;8.88;;;4.80;;
33716;SDS011;20046;50.746;7.072;2023-02-28T08:11:57;11.63;;;4.28;;
33716;SDS011;20046;50.746;7.072;2023-02-28T08:14:22;13.93;;;4.13;;
33716;SDS011;20046;50.746;7.072;2023-02-28T08:16:48;9.05;;;3.85;;
33716;SDS011;20046;50.746;7.072;2023-02-28T08:19:14;8.35;;;3.83;;
33716;SDS011;20046;50.746;7.072;2023-02-28T08:21:39;12.57;;;4.25;;
33716;SDS011;20046;50.746;7.072;2023-02-28T08:24:05;6.18;;;3.60;;
33716;SDS011;20046;50.746;7.072;2023-02-28T08:26:31;6.32;;;3.30;;
33716;SDS011;20046;50.746;7.072;2023-02-28T08:28:56;11.05;;;3.78;;
33716;SDS011;20046;50.746;7.072;2023-02-28T08:31:22;5.95;;;3.20;;
33716;SDS011;20046;50.746;7.072;2023-02-28T08:33:48;8.90;;;4.10;;
33716;SDS011;20046;50.746;7.072;2023-02-28T08:36:16;9.48;;;3.85;;
33716;SDS011;20046;50.746;7.072;2023-02-28T08:38:41;9.27;;;3.90;;
33716;SDS011;20046;50.746;7.072;2023-02-28T08:41:09;9.15;;;3.55;;
33716;SDS011;20046;50.746;7.072;2023-02-28T08:43:36;13.00;;;4.05;;
33716;SDS011;20046;50.746;7.072;2023-02-28T08:46:02;10.20;;;3.83;;
33716;SDS011;20046;50.746;7.072;2023-02-28T08:48:29;11.77;;;3.72;;
33716;SDS011;20046;50.746;7.072;2023-02-28T08:50:57;6.90;;;2.85;;
33716;SDS011;20046;50.746;7.072;2023-02-28T08:53:24;7.40;;;3.17;;
33716;SDS011;20046;50.746;7.072;2023-02-28T08:56:03;7.07;;;2.70;;
33716;SDS011;20046;50.746;7.072;2023-02-28T08:58:33;7.45;;;3.03;;
33716;SDS011;20046;50.746;7.072;2023-02-28T09:00:59;4.35;;;2.72;;
33716;SDS011;20046;50.746;7.072;2023-02-28T09:03:25;8.23;;;2.88;;
33716;SDS011;20046;50.746;7.072;2023-02-28T09:05:59;3.50;;;2.50;;
33716;SDS011;20046;50.746;7.072;2023-02-28T09:08:26;8.35;;;2.58;;
33716;SDS011;20046;50.746;7.072;2023-02-28T09:10:53;8.93;;;3.10;;
33716;SDS011;20046;50.746;7.072;2023-02-28T09:13:21;3.78;;;2.30;;
33716;SDS011;20046;50.746;7.072;2023-02-28T09:15:47;8.00;;;2.40;;
33716;SDS011;20046;50.746;7.072;2023-02-28T09:18:13;3.42;;;2.50;;
33716;SDS011;20046;50.746;7.072;2023-02-28T09:20:40;4.93;;;2.25;;
33716;SDS011;20046;50.746;7.072;2023-02-28T09:23:07;3.15;;;2.40;;
33716;SDS011;20046;50.746;7.072;2023-02-28T09:25:34;5.38;;;2.20;;
33716;SDS011;20046;50.746;7.072;2023-02-28T09:27:59;4.40;;;2.40;;
33716;SDS011;20046;50.746;7.072;2023-02-28T09:30:25;3.38;;;2.20;;
33716;SDS011;20046;50.746;7.072;2023-02-28T09:32:51;3.75;;;2.25;;
33716;SDS011;20046;50.746;7.072;2023-02-28T09:35:17;3.40;;;2.10;;
33716;SDS011;20046;50.746;7.072;2023-02-28T09:37:43;4.38;;;2.15;;
33716;SDS011;20046;50.746;7.072;2023-02-28T09:40:10;4.03;;;2.00;;
33716;SDS011;20046;50.746;7.072;2023-02-28T09:42:37;5.40;;;2.40;;
33716;SDS011;20046;50.746;7.072;2023-02-28T09:45:16;4.22;;;2.38;;
33716;SDS011;20046;50.746;7.072;2023-02-28T09:47:52;2.72;;;1.85;;
33716;SDS011;20046;50.746;7.072;2023-02-28T09:50:44;5.13;;;2.40;;
33716;SDS011;20046;50.746;7.072;2023-02-28T09:53:22;3.72;;;2.15;;
33716;SDS011;20046;50.746;7.072;2023-02-28T09:55:59;6.13;;;2.35;;
33716;SDS011;20046;50.746;7.072;2023-02-28T09:58:46;7.97;;;2.70;;
33716;SDS011;20046;50.746;7.072;2023-02-28T10:07:20;3.78;;;2.20;;
33716;SDS011;20046;50.746;7.072;2023-02-28T10:10:07;5.45;;;2.60;;
33716;SDS011;20046;50.746;7.072;2023-02-28T10:12:52;4.35;;;2.30;;
33716;SDS011;20046;50.746;7.072;2023-02-28T10:15:21;3.03;;;2.00;;
33716;SDS011;20046;50.746;7.072;2023-02-28T10:17:49;3.60;;;2.38;;
33716;SDS011;20046;50.746;7.072;2023-02-28T10:20:27;4.93;;;2.15;;
33716;SDS011;20046;50.746;7.072;2023-02-28T10:25:37;4.90;;;2.92;;
33716;SDS011;20046;50.746;7.072;2023-02-28T10:28:14;2.80;;;1.92;;
33716;SDS011;20046;50.746;7.072;2023-02-28T10:30:45;4.68;;;2.05;;
33716;SDS011;20046;50.746;7.072;2023-02-28T10:35:51;2.42;;;1.83;;
33716;SDS011;20046;50.746;7.072;2023-02-28T10:38:39;5.90;;;2.50;;
33716;SDS011;20046;50.746;7.072;2023-02-28T10:41:09;5.18;;;2.78;;
33716;SDS011;20046;50.746;7.072;2023-02-28T10:43:37;4.25;;;2.45;;
33716;SDS011;20046;50.746;7.072;2023-02-28T10:46:10;8.57;;;2.50;;
33716;SDS011;20046;50.746;7.072;2023-02-28T10:48:48;6.90;;;2.00;;
33716;SDS011;20046;50.746;7.072;2023-02-28T10:51:25;3.65;;;2.25;;
33716;SDS011;20046;50.746;7.072;2023-02-28T10:53:59;2.58;;;2.20;;
33716;SDS011;20046;50.746;7.072;2023-02-28T10:56:25;3.28;;;2.45;;
33716;SDS011;20046;50.746;7.072;2023-02-28T11:01:33;2.92;;;2.03;;
33716;SDS011;20046;50.746;7.072;2023-02-28T11:06:51;3.15;;;2.03;;
33716;SDS011;20046;50.746;7.072;2023-02-28T11:09:25;5.18;;;2.40;;
33716;SDS011;20046;50.746;7.072;2023-02-28T11:11:55;4.10;;;2.17;;
33716;SDS011;20046;50.746;7.072;2023-02-28T11:14:24;5.63;;;2.55;;
33716;SDS011;20046;50.746;7.072;2023-02-28T11:16:52;3.92;;;2.17;;
33716;SDS011;20046;50.746;7.072;2023-02-28T11:19:27;4.90;;;2.40;;
33716;SDS011;20046;50.746;7.072;2023-02-28T11:21:58;2.88;;;2.13;;
33716;SDS011;20046;50.746;7.072;2023-02-28T11:26:53;4.20;;;2.25;;
33716;SDS011;20046;50.746;7.072;2023-02-28T11:32:12;4.03;;;2.10;;
33716;SDS011;20046;50.746;7.072;2023-02-28T11:34:41;2.78;;;2.03;;
33716;SDS011;20046;50.746;7.072;2023-02-28T11:37:11;5.28;;;2.40;;
33716;SDS011;20046;50.746;7.072;2023-02-28T11:39:42;5.32;;;2.08;;
33716;SDS011;20046;50.746;7.072;2023-02-28T11:53:05;2.05;;;1.75;;
33716;SDS011;20046;50.746;7.072;2023-02-28T11:55:51;3.10;;;1.85;;
33716;SDS011;20046;50.746;7.072;2023-02-28T12:01:11;4.15;;;1.85;;
33716;SDS011;20046;50.746;7.072;2023-02-28T12:03:47;4.15;;;2.20;;
33716;SDS011;20046;50.746;7.072;2023-02-28T12:11:32;7.35;;;2.38;;
33716;SDS011;20046;50.746;7.072;2023-02-28T12:14:23;5.43;;;2.15;;
33716;SDS011;20046;50.746;7.072;2023-02-28T12:17:11;4.25;;;2.33;;
33716;SDS011;20046;50.746;7.072;2023-02-28T12:20:05;4.05;;;2.40;;
33716;SDS011;20046;50.746;7.072;2023-02-28T12:28:06;4.80;;;2.13;;
33716;SDS011;20046;50.746;7.072;2023-02-28T12:30:39;4.35;;;2.50;;
33716;SDS011;20046;50.746;7.072;2023-02-28T12:33:14;5.18;;;2.47;;
33716;SDS011;20046;50.746;7.072;2023-02-28T12:44:08;5.88;;;2.63;;
33716;SDS011;20046;50.746;7.072;2023-02-28T12:46:45;4.63;;;2.38;;
33716;SDS011;20046;50.746;7.072;2023-02-28T12:49:23;3.17;;;2.20;;
33716;SDS011;20046;50.746;7.072;2023-02-28T12:51:56;4.75;;;2.45;;
33716;SDS011;20046;50.746;7.072;2023-02-28T13:00:18;5.57;;;2.50;;
33716;SDS011;20046;50.746;7.072;2023-02-28T13:05:53;2.78;;;2.00;;
33716;SDS011;20046;50.746;7.072;2023-02-28T13:14:05;5.32;;;2.80;;
33716;SDS011;20046;50.746;7.072;2023-02-28T13:20:14;2.78;;;2.28;;
33716;SDS011;20046;50.746;7.072;2023-02-28T13:25:00;7.72;;;2.97;;
33716;SDS011;20046;50.746;7.072;2023-02-28T13:27:36;5.22;;;2.45;;
33716;SDS011;20046;50.746;7.072;2023-02-28T13:35:45;3.75;;;2.53;;
33716;SDS011;20046;50.746;7.072;2023-02-28T13:38:22;4.05;;;2.70;;
33716;SDS011;20046;50.746;7.072;2023-02-28T13:40:50;5.80;;;2.42;;
33716;SDS011;20046;50.746;7.072;2023-02-28T13:43:16;6.10;;;3.22;;
33716;SDS011;20046;50.746;7.072;2023-02-28T13:46:03;7.38;;;2.60;;
33716;SDS011;20046;50.746;7.072;2023-02-28T13:48:32;7.00;;;2.70;;
33716;SDS011;20046;50.746;7.072;2023-02-28T13:50:57;4.75;;;2.38;;
33716;SDS011;20046;50.746;7.072;2023-02-28T13:56:03;5.15;;;2.53;;
33716;SDS011;20046;50.746;7.072;2023-02-28T13:58:50;3.95;;;2.70;;
33716;SDS011;20046;50.746;7.072;2023-02-28T14:05:02;6.45;;;3.45;;
33716;SDS011;20046;50.746;7.072;2023-02-28T14:07:33;4.80;;;2.85;;
33716;SDS011;20046;50.746;7.072;2023-02-28T14:10:06;7.22;;;3.90;;
33716;SDS011;20046;50.746;7.072;2023-02-28T14:16:01;7.05;;;3.13;;
33716;SDS011;20046;50.746;7.072;2023-02-28T14:18:32;3.67;;;2.67;;
33716;SDS011;20046;50.746;7.072;2023-02-28T14:32:49;6.43;;;2.95;;
33716;SDS011;20046;50.746;7.072;2023-02-28T14:35:43;6.65;;;3.00;;
33716;SDS011;20046;50.746;7.072;2023-02-28T14:38:16;5.13;;;3.22;;
33716;SDS011;20046;50.746;7.072;2023-02-28T14:40:51;6.53;;;3.13;;
33716;SDS011;20046;50.746;7.072;2023-02-28T14:43:23;5.75;;;3.38;;
33716;SDS011;20046;50.746;7.072;2023-02-28T14:46:01;7.82;;;3.30;;
33716;SDS011;20046;50.746;7.072;2023-02-28T14:48:29;6.00;;;3.28;;
33716;SDS011;20046;50.746;7.072;2023-02-28T14:50:58;4.50;;;2.90;;
33716;SDS011;20046;50.746;7.072;2023-02-28T14:53:26;4.07;;;2.92;;
33716;SDS011;20046;50.746;7.072;2023-02-28T14:55:54;5.38;;;3.00;;
33716;SDS011;20046;50.746;7.072;2023-02-28T14:58:27;4.90;;;3.28;;
33716;SDS011;20046;50.746;7.072;2023-02-28T15:00:58;5.25;;;3.28;;
33716;SDS011;20046;50.746;7.072;2023-02-28T15:03:35;5.85;;;3.38;;
33716;SDS011;20046;50.746;7.072;2023-02-28T15:06:04;6.15;;;3.78;;
33716;SDS011;20046;50.746;7.072;2023-02-28T15:08:42;6.30;;;3.30;;
33716;SDS011;20046;50.746;7.072;2023-02-28T15:11:09;6.95;;;3.20;;
33716;SDS011;20046;50.746;7.072;2023-02-28T15:13:53;5.43;;;3.60;;
33716;SDS011;20046;50.746;7.072;2023-02-28T15:16:28;8.43;;;3.88;;
33716;SDS011;20046;50.746;7.072;2023-02-28T15:19:46;7.90;;;3.83;;
33716;SDS011;20046;50.746;7.072;2023-02-28T15:22:04;6.82;;;3.47;;
33716;SDS011;20046;50.746;7.072;2023-02-28T15:27:12;5.97;;;3.92;;
33716;SDS011;20046;50.746;7.072;2023-02-28T15:30:05;7.03;;;3.97;;
33716;SDS011;20046;50.746;7.072;2023-02-28T15:32:39;6.88;;;3.83;;
33716;SDS011;20046;50.746;7.072;2023-02-28T15:35:18;7.03;;;3.50;;
33716;SDS011;20046;50.746;7.072;2023-02-28T15:37:46;9.45;;;3.83;;
33716;SDS011;20046;50.746;7.072;2023-02-28T15:40:28;7.37;;;3.93;;
33716;SDS011;20046;50.746;7.072;2023-02-28T15:42:59;6.88;;;3.92;;
33716;SDS011;20046;50.746;7.072;2023-02-28T15:45:32;6.28;;;3.97;;
33716;SDS011;20046;50.746;7.072;2023-02-28T15:48:24;7.57;;;4.05;;
33716;SDS011;20046;50.746;7.072;2023-02-28T15:50:56;5.50;;;4.23;;
33716;SDS011;20046;50.746;7.072;2023-02-28T15:56:01;5.18;;;4.00;;
33716;SDS011;20046;50.746;7.072;2023-02-28T15:58:32;7.82;;;3.95;;
33716;SDS011;20046;50.746;7.072;2023-02-28T16:03:51;6.55;;;4.03;;
33716;SDS011;20046;50.746;7.072;2023-02-28T16:06:21;7.57;;;4.25;;
33716;SDS011;20046;50.746;7.072;2023-02-28T16:08:49;9.35;;;3.92;;
33716;SDS011;20046;50.746;7.072;2023-02-28T16:11:16;7.25;;;3.80;;
33716;SDS011;20046;50.746;7.072;2023-02-28T16:13:42;9.02;;;3.70;;
33716;SDS011;20046;50.746;7.072;2023-02-28T16:16:08;9.18;;;3.63;;
33716;SDS011;20046;50.746;7.072;2023-02-28T16:18:39;6.80;;;4.10;;
33716;SDS011;20046;50.746;7.072;2023-02-28T16:21:05;6.22;;;4.22;;
33716;SDS011;20046;50.746;7.072;2023-02-28T16:23:30;7.00;;;3.85;;
33716;SDS011;20046;50.746;7.072;2023-02-28T16:25:56;9.52;;;4.65;;
33716;SDS011;20046;50.746;7.072;2023-02-28T16:28:23;9.43;;;4.88;;
33716;SDS011;20046;50.746;7.072;2023-02-28T16:30:56;9.40;;;4.28;;
33716;SDS011;20046;50.746;7.072;2023-02-28T16:33:21;9.07;;;4.15;;
33716;SDS011;20046;50.746;7.072;2023-02-28T16:35:47;6.60;;;3.95;;
33716;SDS011;20046;50.746;7.072;2023-02-28T16:38:13;6.47;;;4.05;;
33716;SDS011;20046;50.746;7.072;2023-02-28T16:40:38;7.70;;;4.13;;
33716;SDS011;20046;50.746;7.072;2023-02-28T16:43:05;7.13;;;4.32;;
33716;SDS011;20046;50.746;7.072;2023-02-28T16:45:37;6.63;;;4.43;;
33716;SDS011;20046;50.746;7.072;2023-02-28T16:48:02;9.80;;;3.90;;
33716;SDS011;20046;50.746;7.072;2023-02-28T16:50:29;7.55;;;4.05;;
33716;SDS011;20046;50.746;7.072;2023-02-28T16:52:57;5.90;;;3.67;;
33716;SDS011;20046;50.746;7.072;2023-02-28T16:55:23;7.20;;;4.32;;
33716;SDS011;20046;50.746;7.072;2023-02-28T16:57:51;9.35;;;4.50;;
33716;SDS011;20046;50.746;7.072;2023-02-28T17:00:19;11.38;;;4.22;;
33716;SDS011;20046;50.746;7.072;2023-02-28T17:02:46;9.60;;;4.63;;
33716;SDS011;20046;50.746;7.072;2023-02-28T17:05:11;7.93;;;4.90;;
33716;SDS011;20046;50.746;7.072;2023-02-28T17:07:38;7.72;;;3.83;;
33716;SDS011;20046;50.746;7.072;2023-02-28T17:12:59;8.15;;;4.68;;
33716;SDS011;20046;50.746;7.072;2023-02-28T17:15:24;5.78;;;4.28;;
33716;SDS011;20046;50.746;7.072;2023-02-28T17:17:50;6.85;;;3.83;;
33716;SDS011;20046;50.746;7.072;2023-02-28T17:20:17;7.88;;;4.78;;
33716;SDS011;20046;50.746;7.072;2023-02-28T17:22:47;10.23;;;4.18;;
33716;SDS011;20046;50.746;7.072;2023-02-28T17:25:13;9.55;;;4.65;;
33716;SDS011;20046;50.746;7.072;2023-02-28T17:27:38;11.85;;;5.07;;
33716;SDS011;20046;50.746;7.072;2023-02-28T17:30:14;9.10;;;4.70;;